Terminal Aerodrome Forecast
Issued by NWS Cleveland, OH

Home | Current Version | Previous Version | Graphics & Text | Print | Product List | Glossary On
Versions: 1 2 3 4 5 6 7 8 9 10 11 12 13
000
FTUS41 KCLE 252328
TAFTOL
TAF
KTOL 252328Z 2600/2624 27010KT P6SM OVC040
      TEMPO 2600/2604 BKN025
     FM260400 27005KT P6SM BKN060=

USA.gov is the U.S. government's official web portal to all federal, state and local government web resources and services.